Flight Track Log - Related Links

Times and Time Zones

All times are in EDT time to prevent confusion due to time zone crossing. See the AAY860 flight status page for this flight to view local times or setup timezone preferences in your user account.

Time Position Orientation Groundspeed Altitude Reporting Facility
EDT Latitude Longitude Course Direction KTS MPH feet Rate Location/Type
Mon 06:30:49 AM 27.9333 -82.6833 330° Northwest 157 181 800  Level Tampa TRACON
Mon 06:31:55 AM 27.9833 -82.6667 16° North 216 249 2,500 1,864 Climbing Tampa TRACON
Mon 06:33:01 AM 28.0667 -82.6667 360° North 286 329 4,900 2,289 Climbing Tampa TRACON
Mon 06:35:09 AM 28.2333 -82.6758 357° North 307 353 9,900 2,074 Climbing Jacksonville Center
Mon 06:36:00 AM 28.4860 -83.0458 330° Northwest  Level FlightAware Approximate
Mon 06:36:09 AM 28.3231 -82.6922 351° North 314 361 11,400  Level Jacksonville Center
Mon 06:37:09 AM 28.4231 -82.7156 348° North 339 390 13,800 2,350 Climbing Jacksonville Center
Mon 06:38:09 AM 28.5150 -82.7628 336° Northwest 351 404 16,100 2,000 Climbing Jacksonville Center
Mon 06:39:09 AM 28.5986 -82.8381 322° Northwest 362 417 17,800 1,150 Climbing Jacksonville Center
Mon 06:40:09 AM 28.6819 -82.9139 321° Northwest 376 433 18,400 1,150 Climbing Jacksonville Center
Mon 06:41:09 AM 28.7614 -82.9731 327° Northwest 381 438 20,100 1,650 Climbing Jacksonville Center
Mon 06:42:09 AM 28.8572 -83.0467 326° Northwest 394 453 21,700 1,500 Climbing Jacksonville Center
Mon 06:43:09 AM 28.9533 -83.1203 326° Northwest 407 468 23,100 1,400 Climbing Jacksonville Center
Mon 06:44:09 AM 29.0492 -83.1942 326° Northwest 413 475 24,500 1,300 Climbing Jacksonville Center
Mon 06:45:09 AM 29.1450 -83.2683 326° Northwest 424 488 25,700 1,250 Climbing Jacksonville Center
Mon 06:46:09 AM 29.2489 -83.3494 326° Northwest 424 488 27,000 1,200 Climbing Jacksonville Center
Mon 06:47:09 AM 29.3531 -83.4286 326° Northwest 430 495 28,100 1,050 Climbing Jacksonville Center
Mon 06:48:09 AM 29.4656 -83.4864 336° Northwest 440 506 29,100 1,050 Climbing Jacksonville Center
Mon 06:49:09 AM 29.5928 -83.5136 349° North 447 514 30,200 1,150 Climbing Jacksonville Center
Mon 06:50:09 AM 29.7219 -83.5431 349° North 458 527 31,400 850 Climbing Jacksonville Center
Mon 06:51:09 AM 29.8492 -83.5703 349° North 463 533 31,900 250 Climbing Jacksonville Center
Mon 06:52:09 AM 29.9764 -83.5975 349° North 468 539 31,900 150 Level Jacksonville Center
Mon 06:53:09 AM 30.1036 -83.6250 349° North 468 539 32,200 750 Climbing Jacksonville Center
Mon 06:54:09 AM 30.2331 -83.6522 350° North 468 539 33,400 1,450 Climbing Jacksonville Center
Mon 06:55:09 AM 30.3581 -83.6797 349° North 463 533 35,100 1,250 Climbing Jacksonville Center
Mon 06:56:09 AM 30.4811 -83.7072 349° North 453 521 35,900 400 Climbing Jacksonville Center
Mon 06:57:09 AM 30.5978 -83.7325 349° North 446 513 35,900  Level Jacksonville Center
Mon 06:58:09 AM 30.7208 -83.7625 348° North 446 513 35,900 50 Level Jacksonville Center
Mon 06:59:09 AM 30.8439 -83.7903 349° North 446 513 36,000 50 Climbing Jacksonville Center
Mon 07:00:09 AM 30.9647 -83.8156 350° North 446 513 36,000 100 Level Jacksonville Center
Mon 07:01:09 AM 31.0878 -83.8436 349° North 446 513 36,200 621 Climbing Jacksonville Center
Mon 07:03:03 AM 31.3269 -83.9003 349° North 474 545 37,800 621 Climbing Atlanta Center
Mon 07:04:03 AM 31.4461 -83.9294 348° North 448 516 38,000 50 Climbing Atlanta Center
Mon 07:05:03 AM 31.5544 -83.9561 348° North 448 516 37,900  Descending Atlanta Center
Mon 07:06:03 AM 31.6797 -83.9853 349° North 448 516 38,000  Climbing Atlanta Center
Mon 07:07:03 AM 31.8050 -84.0144 349° North 448 516 37,900 -50 Descending Atlanta Center
Mon 07:08:03 AM 31.9261 -84.0389 350° North 448 516 37,900 50 Level Atlanta Center
Mon 07:09:03 AM 32.0514 -84.0683 349° North 448 516 38,000 50 Climbing Atlanta Center
Mon 07:10:03 AM 32.1725 -84.0928 350° North 448 516 38,000 -50 Level Atlanta Center
Mon 07:11:03 AM 32.2933 -84.1222 348° North 448 516 37,900 -50 Descending Atlanta Center
Mon 07:12:03 AM 32.4125 -84.1494 349° North 448 516 37,900  Level Atlanta Center
Mon 07:13:03 AM 32.5333 -84.1792 348° North 448 516 37,900 50 Level Atlanta Center
Mon 07:14:03 AM 32.6567 -84.1844 358° North 443 510 38,000 50 Climbing Atlanta Center
Mon 07:15:03 AM 32.7778 -84.1772 North 443 510 38,000 -50 Level Atlanta Center
Mon 07:16:03 AM 32.8986 -84.1650 North 437 503 37,900 -50 Descending Atlanta Center
Mon 07:17:03 AM 33.0197 -84.1553 North 437 503 37,900 50 Level Atlanta Center
Mon 07:18:03 AM 33.1556 -84.1406 North 443 510 38,000 50 Climbing Atlanta Center
Mon 07:19:03 AM 33.2786 -84.1308 North 443 510 38,000  Level Atlanta Center
Mon 07:20:03 AM 33.3997 -84.1183 North 443 510 38,000  Level Atlanta Center
Mon 07:21:03 AM 33.5250 -84.1086 North 443 510 38,000 -50 Level Atlanta Center
Mon 07:22:03 AM 33.6439 -84.0961 North 438 504 37,900 -50 Descending Atlanta Center
Mon 07:23:03 AM 33.7631 -84.0839 North 438 504 37,900  Level Atlanta Center
Mon 07:24:03 AM 33.8861 -84.0739 North 438 504 37,900  Level Atlanta Center
Mon 07:25:03 AM 34.0092 -84.0639 North 438 504 37,900 50 Level Atlanta Center
Mon 07:26:03 AM 34.1283 -84.0539 North 438 504 38,000 50 Climbing Atlanta Center
Mon 07:27:03 AM 34.2514 -84.0439 North 438 504 38,000  Level Atlanta Center
Mon 07:28:03 AM 34.3725 -84.0336 North 438 504 38,000  Level Atlanta Center
Mon 07:29:03 AM 34.4956 -84.0236 North 438 504 38,000  Level Atlanta Center
Mon 07:30:03 AM 34.6144 -84.0136 North 438 504 38,000  Level Atlanta Center
Mon 07:31:03 AM 34.7314 -84.0033 North 438 504 38,000  Level Atlanta Center
Mon 07:32:03 AM 34.8525 -84.0033 360° North 433 498 38,000  Level Atlanta Center
Mon 07:33:03 AM 34.9756 -84.0236 352° North 433 498 38,000  Level Atlanta Center
Mon 07:34:03 AM 35.0944 -84.0389 354° North 438 504 38,000  Level Atlanta Center
Mon 07:35:03 AM 35.2175 -84.0567 353° North 438 504 38,000 -100 Level Atlanta Center
Mon 07:36:03 AM 35.3386 -84.0744 353° North 438 504 37,800 -550 Descending Atlanta Center
Mon 07:37:03 AM 35.4575 -84.0897 354° North 438 504 36,900 -950 Descending Atlanta Center
Mon 07:38:03 AM 35.5828 -84.1078 353° North 444 511 35,900 -1,000 Descending Atlanta Center
Mon 07:39:03 AM 35.7058 -84.1283 352° North 444 511 34,900 -950 Descending Atlanta Center
Mon 07:40:03 AM 35.8289 -84.1464 353° North 444 511 34,000 -966 Descending Atlanta Center
Mon 07:42:28 AM 36.1222 -84.1886 353° North 446 513 31,600 -986 Descending Indianapolis Center
Mon 07:43:30 AM 36.2444 -84.2067 353° North 446 513 30,600 -927 Descending Indianapolis Center
Mon 07:44:31 AM 36.3653 -84.2253 353° North 445 512 29,700 -927 Descending Indianapolis Center
Mon 07:45:33 AM 36.4856 -84.2442 353° North 440 506 28,700 -976 Descending Indianapolis Center
Mon 07:46:34 AM 36.6072 -84.2625 353° North 433 498 27,700 -1,024 Descending Indianapolis Center
Mon 07:47:36 AM 36.7422 -84.2825 353° North 422 486 26,600 -1,024 Descending Indianapolis Center
Mon 07:48:37 AM 36.8569 -84.3006 353° North 416 479 25,600 -1,073 Descending Indianapolis Center
Mon 07:49:39 AM 36.9711 -84.3178 353° North 415 478 24,400 -2,098 Descending Indianapolis Center
Mon 07:50:40 AM 37.0844 -84.3344 353° North 411 473 21,300 -3,073 Descending Indianapolis Center
Mon 07:51:42 AM 37.2011 -84.3525 353° North 415 478 18,100 -3,024 Descending Indianapolis Center
Mon 07:52:43 AM 37.3181 -84.3714 353° North 418 481 15,100 -2,683 Descending Indianapolis Center
Mon 07:53:45 AM 37.4322 -84.3883 353° North 417 480 12,600 -2,000 Descending Indianapolis Center
Mon 07:54:46 AM 37.5375 -84.4056 353° North 390 449 11,000 -1,073 Descending Indianapolis Center
Mon 07:55:48 AM 37.6436 -84.4222 353° North 337 388 10,400 -968 Descending Indianapolis Center
Mon 07:56:50 AM 37.7275 -84.4347 353° North 308 354 9,000 -1,463 Descending Indianapolis Center
Mon 07:57:51 AM 37.8086 -84.4525 350° North 299 344 7,400 -1,463 Descending Indianapolis Center
Mon 07:58:53 AM 37.8828 -84.4872 340° North 288 331 6,000 -1,355 Descending Indianapolis Center
Mon 07:59:55 AM 37.9553 -84.5150 343° North 277 319 4,600 -1,073 Descending Indianapolis Center
Mon 08:00:56 AM 38.0242 -84.5117 North 254 292 3,800 -683 Descending Indianapolis Center
Mon 08:01:58 AM 38.0786 -84.5039 North 224 258 3,200 -919 Descending Indianapolis Center
Mon 08:03:00 AM 38.0761 -84.5583 267° West 164 189 1,900 -976 Descending Indianapolis Center
Mon 08:04:01 AM 38.0508 -84.5889 224° Southwest 140 161 1,200 -390 Descending Indianapolis Center
Mon 08:05:03 AM 38.0236 -84.6181 220° Southwest 138 159 1,100 -97 Descending Indianapolis Center

Login

Don't have an account? Register now (free) for customized features, flight alerts, and more!